Shady Lake, New Jersey
Current Conditions -  °F | °C
As of 2:53 PM on Thursday 23 Oct 2014 (Local Time) from KFWN Reporting Station
Overcast Overcast  
Wind Chill: 12°   Ceiling: 2800
Heat Index: 12°   Visibility: 10mi
Dew Point:   Wind: 7mph
Humidity: 75%   Direction: NA
Pressure: 29.75"   Gusts: NA
Location:  41.0879°N, 74.3771°W
Report Text: KFWN 231853Z AUTO VRB06KT 10SM OVC028 12/08 A2975 RMK AO2 RAE42 SLP075 P0001 T01220078
Loading
Personal Weather Stations






























Interactive Weather Map
Tropical Storm Tracking
New forecast layout! Learn more

10-Day Weather Forecast

Advertisements
Track Severe Weather on mobile